createdAt,value
2022-08-03T00:00:29.862Z,99.90
2022-08-03T00:02:57.282Z,99.90
2022-08-03T00:05:24.549Z,99.90
2022-08-03T00:07:51.716Z,99.90
2022-08-03T00:10:20.258Z,99.90
2022-08-03T00:12:47.430Z,99.90
2022-08-03T00:15:16.719Z,99.90
2022-08-03T00:17:52.741Z,99.90
2022-08-03T00:20:21.736Z,99.90
2022-08-03T00:22:49.561Z,99.90
2022-08-03T00:25:16.807Z,99.90
2022-08-03T00:27:43.978Z,99.90
2022-08-03T00:30:11.626Z,99.90
2022-08-03T00:32:44.321Z,99.90
2022-08-03T00:35:28.061Z,99.90
2022-08-03T00:37:59.840Z,99.90
2022-08-03T00:40:27.136Z,99.90
2022-08-03T00:42:58.800Z,99.90
2022-08-03T00:45:27.968Z,99.90
2022-08-03T00:47:55.367Z,99.90
2022-08-03T00:50:24.377Z,99.90
2022-08-03T00:52:56.220Z,99.90
2022-08-03T00:55:23.720Z,99.90
2022-08-03T00:57:51.197Z,99.90
2022-08-03T01:00:23.253Z,99.90
2022-08-03T01:02:50.687Z,99.90
2022-08-03T01:05:17.902Z,99.90
2022-08-03T01:08:03.975Z,99.90
2022-08-03T01:10:46.692Z,99.90
2022-08-03T01:14:04.751Z,99.90
2022-08-03T01:16:48.178Z,99.90
2022-08-03T01:19:37.138Z,99.90
2022-08-03T01:22:18.236Z,99.90
2022-08-03T01:25:07.385Z,99.90
2022-08-03T01:27:57.297Z,99.90
2022-08-03T01:30:27.364Z,99.90
2022-08-03T01:33:02.254Z,99.90
2022-08-03T01:35:38.259Z,99.90
2022-08-03T01:38:27.250Z,99.90
2022-08-03T01:40:54.743Z,99.90
2022-08-03T01:44:27.548Z,99.90
2022-08-03T01:46:15.715Z,99.90
2022-08-03T01:48:43.329Z,99.90
2022-08-03T01:51:10.785Z,99.90
2022-08-03T01:53:38.929Z,99.90
2022-08-03T01:56:06.132Z,99.90
2022-08-03T01:58:34.440Z,99.90
2022-08-03T02:01:02.182Z,99.90
2022-08-03T02:03:29.551Z,99.90
2022-08-03T02:06:17.905Z,99.90
2022-08-03T02:08:45.021Z,99.90
2022-08-03T02:11:12.311Z,99.90
2022-08-03T02:13:39.517Z,99.90
2022-08-03T02:16:06.868Z,99.90
2022-08-03T02:18:34.246Z,99.90
2022-08-03T02:21:02.406Z,99.90
2022-08-03T02:23:38.290Z,99.90
2022-08-03T02:26:06.939Z,99.90
2022-08-03T02:28:38.443Z,99.90
2022-08-03T02:31:07.385Z,99.90
2022-08-03T02:33:37.828Z,99.90
2022-08-03T02:36:05.486Z,99.90
2022-08-03T02:38:34.944Z,99.90
2022-08-03T02:41:05.099Z,99.90
2022-08-03T02:43:41.248Z,99.90
2022-08-03T02:46:20.714Z,99.90
2022-08-03T02:48:49.822Z,99.90
2022-08-03T02:51:17.268Z,99.90
2022-08-03T02:53:45.099Z,99.90
2022-08-03T02:56:12.803Z,99.90
2022-08-03T02:58:40.797Z,99.90
2022-08-03T03:01:08.010Z,99.90
2022-08-03T03:03:39.951Z,99.90
2022-08-03T03:06:12.127Z,99.90
2022-08-03T03:08:39.594Z,99.90
2022-08-03T03:11:06.763Z,99.90
2022-08-03T03:13:33.941Z,99.90
2022-08-03T03:16:01.923Z,99.90
2022-08-03T03:18:29.230Z,99.90
2022-08-03T03:20:56.418Z,99.90
2022-08-03T03:23:23.782Z,99.90
2022-08-03T03:25:51.327Z,99.90
2022-08-03T03:28:18.607Z,99.90
2022-08-03T03:30:52.629Z,99.90
2022-08-03T03:33:21.610Z,99.90
2022-08-03T03:35:48.943Z,99.90
2022-08-03T03:38:16.122Z,99.90
2022-08-03T03:40:43.409Z,99.90
2022-08-03T03:43:11.397Z,99.90
2022-08-03T03:45:40.684Z,99.90
2022-08-03T03:48:07.972Z,99.90
2022-08-03T03:50:35.770Z,99.90
2022-08-03T03:53:03.533Z,99.90
2022-08-03T03:55:31.006Z,99.90
2022-08-03T03:57:58.233Z,99.90
2022-08-03T04:00:25.425Z,99.90
2022-08-03T04:02:52.943Z,99.90
2022-08-03T04:05:40.912Z,99.90
2022-08-03T04:08:32.307Z,99.90
2022-08-03T04:11:15.438Z,99.90
2022-08-03T04:13:53.194Z,99.90
2022-08-03T04:16:22.624Z,99.90
2022-08-03T04:18:55.461Z,99.90
2022-08-03T04:21:23.491Z,99.90
2022-08-03T04:23:53.455Z,99.90
2022-08-03T04:26:21.481Z,99.90
2022-08-03T04:28:50.349Z,99.90
2022-08-03T04:31:18.273Z,99.90
2022-08-03T04:33:45.455Z,99.90
2022-08-03T04:36:14.901Z,99.90
2022-08-03T04:39:08.418Z,99.90
2022-08-03T04:42:17.081Z,99.90
2022-08-03T04:44:23.794Z,99.90
2022-08-03T04:46:56.545Z,99.90
2022-08-03T04:49:24.115Z,99.90
2022-08-03T04:51:51.417Z,99.90
2022-08-03T04:54:18.608Z,99.90
2022-08-03T04:56:45.787Z,99.90
2022-08-03T04:59:13.090Z,99.90
2022-08-03T05:01:41.444Z,99.90
2022-08-03T05:04:08.713Z,99.90
2022-08-03T05:06:35.990Z,99.90
2022-08-03T05:09:08.624Z,99.90
2022-08-03T05:11:35.795Z,99.90
2022-08-03T05:14:02.969Z,99.90
2022-08-03T05:16:30.318Z,99.90
2022-08-03T05:18:57.498Z,99.90
2022-08-03T05:21:24.709Z,99.90
2022-08-03T05:24:08.805Z,99.90
2022-08-03T05:26:36.022Z,99.90
2022-08-03T05:29:03.225Z,99.90
2022-08-03T05:31:30.393Z,99.90
2022-08-03T05:33:57.648Z,99.90
2022-08-03T05:36:24.873Z,99.90
2022-08-03T05:38:52.050Z,99.90
2022-08-03T05:41:22.581Z,99.90
2022-08-03T05:43:52.352Z,99.90
2022-08-03T05:46:20.546Z,99.90
2022-08-03T05:48:47.709Z,99.90
2022-08-03T05:51:14.872Z,99.90
2022-08-03T05:53:42.579Z,99.90
2022-08-03T05:56:14.261Z,99.90
2022-08-03T05:58:48.731Z,99.90
2022-08-03T06:01:16.678Z,99.90
2022-08-03T06:03:44.853Z,99.90
2022-08-03T06:06:12.178Z,99.90
2022-08-03T06:08:40.335Z,99.90
2022-08-03T06:11:07.786Z,99.90
2022-08-03T06:13:35.063Z,99.90
2022-08-03T06:16:02.295Z,99.90
2022-08-03T06:18:29.616Z,99.90
2022-08-03T06:20:56.909Z,99.90
2022-08-03T06:23:54.076Z,99.90
2022-08-03T06:26:13.402Z,99.90
2022-08-03T06:28:53.081Z,99.90
2022-08-03T06:31:24.271Z,99.90
2022-08-03T06:34:34.644Z,99.90
2022-08-03T06:36:39.192Z,99.90
2022-08-03T06:39:06.397Z,99.90
2022-08-03T06:41:38.101Z,99.90
2022-08-03T06:44:12.565Z,99.90
2022-08-03T06:46:39.918Z,99.90
2022-08-03T06:49:07.779Z,99.90
2022-08-03T06:52:05.090Z,99.90
2022-08-03T06:54:22.300Z,99.90
2022-08-03T06:56:49.627Z,99.90
2022-08-03T07:00:09.093Z,99.90
2022-08-03T07:02:04.240Z,99.90
2022-08-03T07:04:31.402Z,99.90
2022-08-03T07:06:58.653Z,99.90
2022-08-03T07:09:26.684Z,99.90
2022-08-03T07:11:54.983Z,99.90
2022-08-03T07:14:22.318Z,99.90
2022-08-03T07:16:49.537Z,99.90
2022-08-03T07:19:16.775Z,99.90
2022-08-03T07:21:43.960Z,99.90
2022-08-03T07:24:11.191Z,99.90
2022-08-03T07:26:38.363Z,99.90
2022-08-03T07:29:08.744Z,99.90
2022-08-03T07:31:42.442Z,99.90
2022-08-03T07:34:09.645Z,99.90
2022-08-03T07:36:36.930Z,99.90
2022-08-03T07:39:15.978Z,99.90
2022-08-03T07:41:45.912Z,99.90
2022-08-03T07:44:13.248Z,99.90
2022-08-03T07:46:40.427Z,99.90
2022-08-03T07:49:07.625Z,99.90
2022-08-03T07:51:35.192Z,99.30
2022-08-03T07:54:02.441Z,98.50
2022-08-03T07:56:30.189Z,98.60
2022-08-03T07:58:57.545Z,99.30
2022-08-03T08:01:24.883Z,98.60
2022-08-03T08:03:53.031Z,98.40
2022-08-03T08:06:21.280Z,98.20
2022-08-03T08:08:48.481Z,97.80
2022-08-03T08:11:15.738Z,98.00
2022-08-03T08:13:42.939Z,97.20
2022-08-03T08:16:10.131Z,97.00
2022-08-03T08:18:37.322Z,96.20
2022-08-03T08:21:04.502Z,95.30
2022-08-03T08:23:43.682Z,94.60
2022-08-03T08:26:13.515Z,95.00
2022-08-03T08:28:40.727Z,94.60
2022-08-03T08:31:11.235Z,92.70
2022-08-03T08:36:25.933Z,92.10
2022-08-03T08:38:53.339Z,91.10
2022-08-03T08:41:20.629Z,90.40
2022-08-03T08:43:47.819Z,91.00
2022-08-03T08:46:22.810Z,90.00
2022-08-03T08:48:51.678Z,89.60
2022-08-03T08:51:19.829Z,88.10
2022-08-03T08:53:49.683Z,90.10
2022-08-03T08:56:16.943Z,89.50
2022-08-03T08:59:02.798Z,88.60
2022-08-03T09:01:30.927Z,85.50
2022-08-03T09:03:58.270Z,86.00
2022-08-03T09:06:25.479Z,86.30
2022-08-03T09:08:52.682Z,85.20
2022-08-03T09:11:53.193Z,82.20
2022-08-03T09:14:11.285Z,80.50
2022-08-03T09:17:02.357Z,79.80
2022-08-03T09:19:33.253Z,79.20
2022-08-03T09:22:16.568Z,77.00
2022-08-03T09:25:22.750Z,74.00
2022-08-03T09:27:47.296Z,75.40
2022-08-03T09:30:33.081Z,75.50
2022-08-03T09:33:05.284Z,76.40
2022-08-03T09:35:53.146Z,73.60
2022-08-03T09:38:26.572Z,73.80
2022-08-03T09:40:59.165Z,71.40
2022-08-03T09:43:27.898Z,68.70
2022-08-03T09:46:05.033Z,69.60
2022-08-03T09:48:34.928Z,68.70
2022-08-03T09:51:12.809Z,68.80
2022-08-03T09:53:58.904Z,65.40
2022-08-03T09:56:46.899Z,65.30
2022-08-03T09:59:23.338Z,63.30
2022-08-03T10:01:50.730Z,64.90
2022-08-03T10:04:20.709Z,62.80
2022-08-03T10:07:15.010Z,61.10
2022-08-03T10:10:30.054Z,62.70
2022-08-03T10:12:51.838Z,63.40
2022-08-03T10:16:21.817Z,62.90
2022-08-03T10:18:09.206Z,60.10
2022-08-03T10:21:01.427Z,58.30
2022-08-03T10:23:33.415Z,56.80
2022-08-03T10:26:03.246Z,56.50
2022-08-03T10:28:44.540Z,57.20
2022-08-03T10:31:23.366Z,57.40
2022-08-03T10:33:56.147Z,58.20
2022-08-03T10:36:24.347Z,55.60
2022-08-03T10:38:56.690Z,56.90
2022-08-03T10:41:26.331Z,57.40
2022-08-03T10:44:04.725Z,58.20
2022-08-03T10:46:32.699Z,57.20
2022-08-03T10:49:03.318Z,56.30
2022-08-03T10:51:32.237Z,55.10
2022-08-03T10:54:01.809Z,54.90
2022-08-03T10:56:51.169Z,54.10
2022-08-03T10:59:27.976Z,54.50
2022-08-03T11:02:00.876Z,53.80
2022-08-03T11:04:29.575Z,53.40
2022-08-03T11:07:16.131Z,52.20
2022-08-03T11:09:54.083Z,51.30
2022-08-03T11:12:31.203Z,52.40
2022-08-03T11:15:01.617Z,51.20
2022-08-03T11:17:29.204Z,51.10
2022-08-03T11:19:57.539Z,51.90
2022-08-03T11:22:25.832Z,51.20
2022-08-03T11:24:57.325Z,51.10
2022-08-03T11:27:29.147Z,49.60
2022-08-03T11:29:59.767Z,49.90
2022-08-03T11:32:40.153Z,50.20
2022-08-03T11:35:35.363Z,50.50
2022-08-03T11:38:04.837Z,50.40
2022-08-03T11:40:43.974Z,53.30
2022-08-03T11:43:25.748Z,52.50
2022-08-03T11:46:28.488Z,49.30
2022-08-03T11:49:10.025Z,49.20
2022-08-03T11:51:39.814Z,48.20
2022-08-03T11:54:07.237Z,48.60
2022-08-03T11:56:50.247Z,48.90
2022-08-03T11:59:21.887Z,49.30
2022-08-03T12:01:51.497Z,45.70
2022-08-03T12:04:19.800Z,46.70
2022-08-03T12:07:00.589Z,46.70
2022-08-03T12:09:28.001Z,46.90
2022-08-03T12:12:00.934Z,44.70
2022-08-03T12:14:48.492Z,45.50
2022-08-03T12:17:17.276Z,45.30
2022-08-03T12:19:44.860Z,46.00
2022-08-03T12:22:12.049Z,45.80
2022-08-03T12:24:42.786Z,46.00
2022-08-03T12:27:10.039Z,46.20
2022-08-03T12:29:37.205Z,45.50
2022-08-03T12:32:04.626Z,46.00
2022-08-03T12:34:50.581Z,44.70
2022-08-03T12:37:22.628Z,45.60
2022-08-03T12:40:08.004Z,45.80
2022-08-03T12:42:38.913Z,43.70
2022-08-03T12:45:26.547Z,45.50
2022-08-03T12:47:58.171Z,45.70
2022-08-03T12:50:28.074Z,44.80
2022-08-03T12:52:55.951Z,43.50
2022-08-03T12:55:23.611Z,44.00
2022-08-03T12:57:50.939Z,43.20
2022-08-03T13:00:29.061Z,42.90
2022-08-03T13:03:26.734Z,44.20
2022-08-03T13:05:47.458Z,43.50
2022-08-03T13:08:22.287Z,45.10
2022-08-03T13:10:49.527Z,45.60
2022-08-03T13:13:16.820Z,45.70
2022-08-03T13:15:48.022Z,45.20
2022-08-03T13:18:17.327Z,45.50
2022-08-03T13:20:44.830Z,44.60
2022-08-03T13:23:21.951Z,45.50
2022-08-03T13:25:55.953Z,44.20
2022-08-03T13:28:23.440Z,44.80
2022-08-03T13:30:50.611Z,45.00
2022-08-03T13:33:18.034Z,42.00
2022-08-03T13:35:45.451Z,42.40
2022-08-03T13:38:12.697Z,42.20
2022-08-03T13:40:42.640Z,40.20
2022-08-03T13:43:13.491Z,42.50
2022-08-03T13:45:40.837Z,43.70
2022-08-03T13:48:08.272Z,43.50
2022-08-03T13:50:39.797Z,41.10
2022-08-03T13:53:09.942Z,42.00
2022-08-03T13:55:37.350Z,43.00
2022-08-03T13:58:07.478Z,45.50
2022-08-03T14:00:34.917Z,46.40
2022-08-03T14:03:17.582Z,46.70
2022-08-03T14:05:45.095Z,44.30
2022-08-03T14:08:12.628Z,44.30
2022-08-03T14:10:41.619Z,43.20
2022-08-03T14:13:10.000Z,42.30
2022-08-03T14:15:38.686Z,42.60
2022-08-03T14:18:15.364Z,43.00
2022-08-03T14:20:50.330Z,42.80
2022-08-03T14:23:20.305Z,43.20
2022-08-03T14:25:52.411Z,42.60
2022-08-03T14:28:22.360Z,43.10
2022-08-03T14:30:50.693Z,43.80
2022-08-03T14:33:17.932Z,43.10
2022-08-03T14:35:45.182Z,43.50
2022-08-03T14:38:12.357Z,43.80
2022-08-03T14:40:39.598Z,43.60
2022-08-03T14:43:06.833Z,43.80
2022-08-03T14:45:34.375Z,44.60
2022-08-03T14:50:28.638Z,44.10
2022-08-03T14:50:51.756Z,43.70
2022-08-03T14:53:19.709Z,44.20
2022-08-03T14:55:50.813Z,45.40
2022-08-03T14:58:22.812Z,45.50
2022-08-03T15:00:51.239Z,44.20
2022-08-03T15:03:24.405Z,43.80
2022-08-03T15:05:52.842Z,44.40
2022-08-03T15:08:20.449Z,43.80
2022-08-03T15:10:48.430Z,43.90
2022-08-03T15:13:17.262Z,44.40
2022-08-03T15:15:44.510Z,44.50
2022-08-03T15:18:11.959Z,44.00
2022-08-03T15:20:44.919Z,44.40
2022-08-03T15:23:13.757Z,44.40
2022-08-03T15:26:03.664Z,44.80
2022-08-03T15:28:28.285Z,44.30
2022-08-03T15:30:55.456Z,43.10
2022-08-03T15:33:22.621Z,42.70
2022-08-03T15:35:49.922Z,43.10
2022-08-03T15:38:17.547Z,43.00
2022-08-03T15:40:45.230Z,43.80
2022-08-03T15:43:12.491Z,44.20
2022-08-03T15:45:40.614Z,44.10
2022-08-03T15:48:09.369Z,44.20
2022-08-03T15:50:36.732Z,45.00
2022-08-03T15:53:04.390Z,44.90
2022-08-03T15:55:31.940Z,45.30
2022-08-03T15:59:09.608Z,45.70
2022-08-03T16:00:46.713Z,46.20
2022-08-03T16:03:14.053Z,45.70
2022-08-03T16:05:41.411Z,44.70
2022-08-03T16:08:13.502Z,44.60
2022-08-03T16:10:41.277Z,44.90
2022-08-03T16:13:08.794Z,45.50
2022-08-03T16:15:38.396Z,44.00
2022-08-03T16:18:06.814Z,45.00
2022-08-03T16:20:35.305Z,45.30
2022-08-03T16:23:10.470Z,44.90
2022-08-03T16:25:39.374Z,45.50
2022-08-03T16:28:13.518Z,46.10
2022-08-03T16:30:42.638Z,46.30
2022-08-03T16:33:10.239Z,46.20
2022-08-03T16:35:37.653Z,45.70
2022-08-03T16:38:09.588Z,45.90
2022-08-03T16:40:37.368Z,45.40
2022-08-03T16:43:17.828Z,45.60
2022-08-03T16:45:49.272Z,45.80
2022-08-03T16:48:16.868Z,47.00
2022-08-03T16:50:44.609Z,46.40
2022-08-03T16:53:12.809Z,47.20
2022-08-03T16:55:52.392Z,47.70
2022-08-03T16:58:41.815Z,47.00
2022-08-03T17:01:22.230Z,47.10
2022-08-03T17:04:02.444Z,46.20
2022-08-03T17:06:36.456Z,46.20
2022-08-03T17:09:09.891Z,47.10
2022-08-03T17:11:47.337Z,47.60
2022-08-03T17:14:22.012Z,47.20
2022-08-03T17:16:52.762Z,47.20
2022-08-03T17:19:23.301Z,47.30
2022-08-03T17:22:04.786Z,47.10
2022-08-03T17:24:33.838Z,47.70
2022-08-03T17:27:03.039Z,48.50
2022-08-03T17:29:30.311Z,48.60
2022-08-03T17:31:57.547Z,48.20
2022-08-03T17:34:26.495Z,48.80
2022-08-03T17:37:26.911Z,48.90
2022-08-03T17:39:58.101Z,49.80
2022-08-03T17:45:15.613Z,49.80
2022-08-03T17:47:43.837Z,50.10
2022-08-03T17:53:15.195Z,50.50
2022-08-03T17:55:59.623Z,50.40
2022-08-03T17:58:43.555Z,50.70
2022-08-03T18:02:00.478Z,51.30
2022-08-03T18:04:21.706Z,52.00
2022-08-03T18:06:59.288Z,51.60
2022-08-03T18:10:03.698Z,51.90
2022-08-03T18:12:26.261Z,52.60
2022-08-03T18:15:01.318Z,53.00
2022-08-03T18:17:54.564Z,53.50
2022-08-03T18:20:34.658Z,53.80
2022-08-03T18:23:09.473Z,53.90
2022-08-03T18:25:44.873Z,54.20
2022-08-03T18:28:13.937Z,54.20
2022-08-03T18:34:18.465Z,54.40
2022-08-03T18:36:29.470Z,54.40
2022-08-03T18:38:59.497Z,54.40
2022-08-03T18:41:32.886Z,54.50
2022-08-03T18:44:08.221Z,54.60
2022-08-03T18:47:16.745Z,54.70
2022-08-03T18:49:48.342Z,54.90
2022-08-03T18:52:27.701Z,55.10
2022-08-03T18:55:21.082Z,55.30
2022-08-03T19:01:15.435Z,55.60
2022-08-03T19:03:58.590Z,55.70
2022-08-03T19:06:27.156Z,55.90
2022-08-03T19:09:05.291Z,56.10
2022-08-03T19:12:11.115Z,56.20
2022-08-03T19:14:31.201Z,56.30
2022-08-03T19:17:13.986Z,56.50
2022-08-03T19:19:45.035Z,56.80
2022-08-03T19:22:16.002Z,57.00
2022-08-03T19:24:44.273Z,57.10
2022-08-03T19:27:11.851Z,57.20
2022-08-03T19:29:58.648Z,57.50
2022-08-03T19:32:31.038Z,57.60
2022-08-03T19:34:59.814Z,58.00
2022-08-03T19:37:38.304Z,58.30
2022-08-03T19:40:10.211Z,58.60
2022-08-03T19:42:38.228Z,59.00
2022-08-03T19:45:13.812Z,59.20
2022-08-03T19:47:46.175Z,59.40
2022-08-03T19:50:14.365Z,59.40
2022-08-03T19:52:43.742Z,59.50
2022-08-03T19:55:12.187Z,59.80
2022-08-03T19:57:41.986Z,61.00
2022-08-03T20:00:11.728Z,60.40
2022-08-03T20:02:39.842Z,60.60
2022-08-03T20:05:14.817Z,60.90
2022-08-03T20:07:47.596Z,61.10
2022-08-03T20:10:16.721Z,61.20
2022-08-03T20:12:44.683Z,61.50
2022-08-03T20:15:12.102Z,61.80
2022-08-03T20:17:54.332Z,62.40
2022-08-03T20:20:34.959Z,63.20
2022-08-03T20:23:07.627Z,64.00
2022-08-03T20:25:48.951Z,64.40
2022-08-03T20:28:29.323Z,64.80
2022-08-03T20:30:56.967Z,65.10
2022-08-03T20:36:11.388Z,65.80
2022-08-03T20:38:43.792Z,65.90
2022-08-03T20:41:15.700Z,65.80
2022-08-03T20:43:43.047Z,65.80
2022-08-03T20:46:31.756Z,65.60
2022-08-03T20:48:58.785Z,65.60
2022-08-03T20:51:49.015Z,65.70
2022-08-03T20:54:22.564Z,65.70
2022-08-03T20:56:58.153Z,65.90
2022-08-03T20:59:50.627Z,66.00
2022-08-03T21:02:30.071Z,66.20
2022-08-03T21:05:03.537Z,66.40
2022-08-03T21:08:05.464Z,66.50
2022-08-03T21:10:35.856Z,66.70
2022-08-03T21:12:54.738Z,50.10
2022-08-03T21:12:55.448Z,51.00
2022-08-03T21:13:05.550Z,54.40
2022-08-03T21:13:07.168Z,65.30
2022-08-03T21:13:10.024Z,55.40
2022-08-03T21:16:06.140Z,67.00
2022-08-03T21:18:48.845Z,67.10
2022-08-03T21:21:19.034Z,67.40
2022-08-03T21:23:49.846Z,67.80
2022-08-03T21:26:18.808Z,68.00
2022-08-03T21:28:47.479Z,68.10
2022-08-03T21:31:25.328Z,68.10
2022-08-03T21:33:57.868Z,69.10
2022-08-03T21:36:27.030Z,68.90
2022-08-03T21:38:56.356Z,68.80
2022-08-03T21:41:25.363Z,68.80
2022-08-03T21:43:52.573Z,68.80
2022-08-03T21:46:19.976Z,69.20
2022-08-03T21:48:48.235Z,69.90
2022-08-03T21:51:16.275Z,69.20
2022-08-03T21:54:04.063Z,69.30
2022-08-03T21:56:35.016Z,69.30
2022-08-03T21:59:07.642Z,69.40
2022-08-03T22:01:35.819Z,69.60
2022-08-03T22:04:07.350Z,70.10
2022-08-03T22:06:36.962Z,70.70
2022-08-03T22:09:05.846Z,70.70
2022-08-03T22:11:34.799Z,71.00
2022-08-03T22:14:02.025Z,71.00
2022-08-03T22:16:29.635Z,71.20
2022-08-03T22:18:56.822Z,71.20
2022-08-03T22:21:36.367Z,71.40
2022-08-03T22:24:04.998Z,71.60
2022-08-03T22:26:35.450Z,71.90
2022-08-03T22:29:08.356Z,72.20
2022-08-03T22:31:58.422Z,72.50
2022-08-03T22:34:26.556Z,72.90
2022-08-03T22:36:57.237Z,73.10
2022-08-03T22:39:28.655Z,73.40
2022-08-03T22:41:59.262Z,73.80
2022-08-03T22:44:27.155Z,74.00
2022-08-03T22:46:54.378Z,74.40
2022-08-03T22:49:21.624Z,75.10
2022-08-03T22:51:50.255Z,74.40
2022-08-03T22:54:17.598Z,74.30
2022-08-03T22:56:46.123Z,74.30
2022-08-03T22:59:39.990Z,74.50
2022-08-03T23:02:02.511Z,74.50
2022-08-03T23:04:56.022Z,74.60
2022-08-03T23:07:50.427Z,74.70
2022-08-03T23:10:18.024Z,74.80
2022-08-03T23:12:48.121Z,75.00
2022-08-03T23:15:15.499Z,75.30
2022-08-03T23:17:58.225Z,75.40
2022-08-03T23:20:26.471Z,76.10
2022-08-03T23:22:54.575Z,76.20
2022-08-03T23:25:21.945Z,76.30
2022-08-03T23:28:05.511Z,76.50
2022-08-03T23:30:34.656Z,76.70
2022-08-03T23:33:01.880Z,76.70
2022-08-03T23:36:29.898Z,76.80
2022-08-03T23:38:35.604Z,76.90
2022-08-03T23:41:03.661Z,77.10
2022-08-03T23:43:51.783Z,77.30
2022-08-03T23:46:24.328Z,77.40
2022-08-03T23:48:51.542Z,77.50
2022-08-03T23:51:26.891Z,77.70
2022-08-03T23:54:10.322Z,77.90
2022-08-03T23:57:06.915Z,78.10
2022-08-03T23:59:52.734Z,78.50
